sensor_id;sensor_type;location;lat;lon;timestamp;temperature;humidity
22065;DHT22;11197;53.110;8.468;2024-03-08T00:00:17;2.70;99.90
22065;DHT22;11197;53.110;8.468;2024-03-08T00:02:46;2.70;99.90
22065;DHT22;11197;53.110;8.468;2024-03-08T00:05:13;2.70;99.90
22065;DHT22;11197;53.110;8.468;2024-03-08T00:07:40;2.70;99.90
22065;DHT22;11197;53.110;8.468;2024-03-08T00:10:07;2.70;99.90
22065;DHT22;11197;53.110;8.468;2024-03-08T00:12:44;2.70;99.90
22065;DHT22;11197;53.110;8.468;2024-03-08T00:15:10;2.70;99.90
22065;DHT22;11197;53.110;8.468;2024-03-08T00:17:36;2.70;99.90
22065;DHT22;11197;53.110;8.468;2024-03-08T00:20:02;2.70;99.90
22065;DHT22;11197;53.110;8.468;2024-03-08T00:22:34;2.70;99.90
22065;DHT22;11197;53.110;8.468;2024-03-08T00:25:01;2.70;99.90
22065;DHT22;11197;53.110;8.468;2024-03-08T00:27:28;2.60;99.90
22065;DHT22;11197;53.110;8.468;2024-03-08T00:29:59;2.70;99.90
22065;DHT22;11197;53.110;8.468;2024-03-08T00:32:26;2.60;99.90
22065;DHT22;11197;53.110;8.468;2024-03-08T00:34:53;2.60;99.90
22065;DHT22;11197;53.110;8.468;2024-03-08T00:37:20;2.60;99.90
22065;DHT22;11197;53.110;8.468;2024-03-08T00:39:48;2.60;99.90
22065;DHT22;11197;53.110;8.468;2024-03-08T00:42:18;2.60;99.90
22065;DHT22;11197;53.110;8.468;2024-03-08T00:44:44;2.60;99.90
22065;DHT22;11197;53.110;8.468;2024-03-08T00:47:10;2.60;99.90
22065;DHT22;11197;53.110;8.468;2024-03-08T00:49:36;2.50;99.90
22065;DHT22;11197;53.110;8.468;2024-03-08T00:52:06;2.60;99.90
22065;DHT22;11197;53.110;8.468;2024-03-08T00:54:32;2.50;99.90
22065;DHT22;11197;53.110;8.468;2024-03-08T00:56:58;2.50;99.90
22065;DHT22;11197;53.110;8.468;2024-03-08T00:59:24;2.50;99.90
22065;DHT22;11197;53.110;8.468;2024-03-08T01:01:50;2.50;99.90
22065;DHT22;11197;53.110;8.468;2024-03-08T01:04:15;2.50;99.90
22065;DHT22;11197;53.110;8.468;2024-03-08T01:06:41;2.40;99.90
22065;DHT22;11197;53.110;8.468;2024-03-08T01:09:11;2.50;99.90
22065;DHT22;11197;53.110;8.468;2024-03-08T01:11:37;2.50;99.90
22065;DHT22;11197;53.110;8.468;2024-03-08T01:14:03;2.40;99.90
22065;DHT22;11197;53.110;8.468;2024-03-08T01:16:29;2.40;99.90
22065;DHT22;11197;53.110;8.468;2024-03-08T01:18:54;2.40;99.90
22065;DHT22;11197;53.110;8.468;2024-03-08T01:21:20;2.40;99.90
22065;DHT22;11197;53.110;8.468;2024-03-08T01:23:46;2.40;99.90
22065;DHT22;11197;53.110;8.468;2024-03-08T01:26:12;2.40;99.90
22065;DHT22;11197;53.110;8.468;2024-03-08T01:28:39;2.40;99.90
22065;DHT22;11197;53.110;8.468;2024-03-08T01:31:05;2.30;99.90
22065;DHT22;11197;53.110;8.468;2024-03-08T01:33:31;2.30;99.90
22065;DHT22;11197;53.110;8.468;2024-03-08T01:35:57;2.30;99.90
22065;DHT22;11197;53.110;8.468;2024-03-08T01:38:23;2.30;99.90
22065;DHT22;11197;53.110;8.468;2024-03-08T01:40:49;2.30;99.90
22065;DHT22;11197;53.110;8.468;2024-03-08T01:43:35;2.30;99.90
22065;DHT22;11197;53.110;8.468;2024-03-08T01:46:01;2.30;99.90
22065;DHT22;11197;53.110;8.468;2024-03-08T01:48:30;2.30;99.90
22065;DHT22;11197;53.110;8.468;2024-03-08T01:50:57;2.30;99.90
22065;DHT22;11197;53.110;8.468;2024-03-08T01:53:24;2.30;99.90
22065;DHT22;11197;53.110;8.468;2024-03-08T01:55:53;2.30;99.90
22065;DHT22;11197;53.110;8.468;2024-03-08T01:58:20;2.30;99.90
22065;DHT22;11197;53.110;8.468;2024-03-08T02:00:48;2.30;99.90
22065;DHT22;11197;53.110;8.468;2024-03-08T02:03:17;2.30;99.90
22065;DHT22;11197;53.110;8.468;2024-03-08T02:05:43;2.20;99.90
22065;DHT22;11197;53.110;8.468;2024-03-08T02:08:09;2.20;99.90
22065;DHT22;11197;53.110;8.468;2024-03-08T02:10:39;2.20;99.90
22065;DHT22;11197;53.110;8.468;2024-03-08T02:13:05;2.20;99.90
22065;DHT22;11197;53.110;8.468;2024-03-08T02:18:16;2.20;99.90
22065;DHT22;11197;53.110;8.468;2024-03-08T02:20:43;2.20;99.90
22065;DHT22;11197;53.110;8.468;2024-03-08T02:23:09;2.20;99.90
22065;DHT22;11197;53.110;8.468;2024-03-08T02:25:35;2.10;99.90
22065;DHT22;11197;53.110;8.468;2024-03-08T02:28:01;2.10;99.90
22065;DHT22;11197;53.110;8.468;2024-03-08T02:30:27;2.10;99.90
22065;DHT22;11197;53.110;8.468;2024-03-08T02:32:55;2.10;99.90
22065;DHT22;11197;53.110;8.468;2024-03-08T02:35:21;2.10;99.90
22065;DHT22;11197;53.110;8.468;2024-03-08T02:37:47;2.10;99.90
22065;DHT22;11197;53.110;8.468;2024-03-08T02:40:13;2.10;99.90
22065;DHT22;11197;53.110;8.468;2024-03-08T02:42:39;2.10;99.90
22065;DHT22;11197;53.110;8.468;2024-03-08T02:45:05;2.10;99.90
22065;DHT22;11197;53.110;8.468;2024-03-08T02:47:32;2.10;99.90
22065;DHT22;11197;53.110;8.468;2024-03-08T02:49:57;2.00;99.90
22065;DHT22;11197;53.110;8.468;2024-03-08T02:52:23;2.00;99.90
22065;DHT22;11197;53.110;8.468;2024-03-08T02:54:49;2.00;99.90
22065;DHT22;11197;53.110;8.468;2024-03-08T02:57:15;2.00;99.90
22065;DHT22;11197;53.110;8.468;2024-03-08T02:59:41;2.00;99.90
22065;DHT22;11197;53.110;8.468;2024-03-08T03:02:07;2.00;99.90
22065;DHT22;11197;53.110;8.468;2024-03-08T03:04:34;2.00;99.90
22065;DHT22;11197;53.110;8.468;2024-03-08T03:07:00;2.00;99.90
22065;DHT22;11197;53.110;8.468;2024-03-08T03:09:26;2.00;99.90
22065;DHT22;11197;53.110;8.468;2024-03-08T03:11:54;1.90;99.90
22065;DHT22;11197;53.110;8.468;2024-03-08T03:14:21;1.90;99.90
22065;DHT22;11197;53.110;8.468;2024-03-08T03:16:47;1.90;99.90
22065;DHT22;11197;53.110;8.468;2024-03-08T03:19:13;1.90;99.90
22065;DHT22;11197;53.110;8.468;2024-03-08T03:21:40;1.90;99.90
22065;DHT22;11197;53.110;8.468;2024-03-08T03:24:08;1.90;99.90
22065;DHT22;11197;53.110;8.468;2024-03-08T03:26:37;1.80;99.90
22065;DHT22;11197;53.110;8.468;2024-03-08T03:29:06;1.80;99.90
22065;DHT22;11197;53.110;8.468;2024-03-08T03:31:34;1.80;99.90
22065;DHT22;11197;53.110;8.468;2024-03-08T03:34:00;1.80;99.90
22065;DHT22;11197;53.110;8.468;2024-03-08T03:36:32;1.80;99.90
22065;DHT22;11197;53.110;8.468;2024-03-08T03:39:00;1.90;99.90
22065;DHT22;11197;53.110;8.468;2024-03-08T03:41:52;1.80;99.90
22065;DHT22;11197;53.110;8.468;2024-03-08T03:44:18;1.80;99.90
22065;DHT22;11197;53.110;8.468;2024-03-08T03:46:44;1.80;99.90
22065;DHT22;11197;53.110;8.468;2024-03-08T03:49:09;1.80;99.90
22065;DHT22;11197;53.110;8.468;2024-03-08T03:51:35;1.80;99.90
22065;DHT22;11197;53.110;8.468;2024-03-08T03:54:01;1.70;99.90
22065;DHT22;11197;53.110;8.468;2024-03-08T03:56:29;1.70;99.90
22065;DHT22;11197;53.110;8.468;2024-03-08T03:58:56;1.70;99.90
22065;DHT22;11197;53.110;8.468;2024-03-08T04:01:22;1.70;99.90
22065;DHT22;11197;53.110;8.468;2024-03-08T04:03:47;1.70;99.90
22065;DHT22;11197;53.110;8.468;2024-03-08T04:06:13;1.70;99.90
22065;DHT22;11197;53.110;8.468;2024-03-08T04:08:40;1.70;99.90
22065;DHT22;11197;53.110;8.468;2024-03-08T04:11:06;1.70;99.90
22065;DHT22;11197;53.110;8.468;2024-03-08T04:13:32;1.60;99.90
22065;DHT22;11197;53.110;8.468;2024-03-08T04:15:58;1.60;99.90
22065;DHT22;11197;53.110;8.468;2024-03-08T04:18:24;1.70;99.90
22065;DHT22;11197;53.110;8.468;2024-03-08T04:20:50;1.60;99.90
22065;DHT22;11197;53.110;8.468;2024-03-08T04:23:15;1.60;99.90
22065;DHT22;11197;53.110;8.468;2024-03-08T04:25:43;1.60;99.90
22065;DHT22;11197;53.110;8.468;2024-03-08T04:28:09;1.60;99.90
22065;DHT22;11197;53.110;8.468;2024-03-08T04:30:38;1.60;99.90
22065;DHT22;11197;53.110;8.468;2024-03-08T04:33:05;1.60;99.90
22065;DHT22;11197;53.110;8.468;2024-03-08T04:35:32;1.60;99.90
22065;DHT22;11197;53.110;8.468;2024-03-08T04:37:58;1.60;99.90
22065;DHT22;11197;53.110;8.468;2024-03-08T04:40:25;1.60;99.90
22065;DHT22;11197;53.110;8.468;2024-03-08T04:42:51;1.50;99.90
22065;DHT22;11197;53.110;8.468;2024-03-08T04:45:17;1.60;99.90
22065;DHT22;11197;53.110;8.468;2024-03-08T04:47:44;1.50;99.90
22065;DHT22;11197;53.110;8.468;2024-03-08T04:50:10;1.50;99.90
22065;DHT22;11197;53.110;8.468;2024-03-08T04:52:36;1.60;99.90
22065;DHT22;11197;53.110;8.468;2024-03-08T04:55:02;1.50;99.90
22065;DHT22;11197;53.110;8.468;2024-03-08T04:57:31;1.50;99.90
22065;DHT22;11197;53.110;8.468;2024-03-08T04:59:57;1.50;99.90
22065;DHT22;11197;53.110;8.468;2024-03-08T05:02:24;1.50;99.90
22065;DHT22;11197;53.110;8.468;2024-03-08T05:04:50;1.50;99.90
22065;DHT22;11197;53.110;8.468;2024-03-08T05:07:16;1.50;99.90
22065;DHT22;11197;53.110;8.468;2024-03-08T05:09:42;1.50;99.90
22065;DHT22;11197;53.110;8.468;2024-03-08T05:12:08;1.40;99.90
22065;DHT22;11197;53.110;8.468;2024-03-08T05:14:33;1.40;99.90
22065;DHT22;11197;53.110;8.468;2024-03-08T05:17:00;1.40;99.90
22065;DHT22;11197;53.110;8.468;2024-03-08T05:19:26;1.40;99.90
22065;DHT22;11197;53.110;8.468;2024-03-08T05:21:52;1.40;99.90
22065;DHT22;11197;53.110;8.468;2024-03-08T05:24:18;1.30;99.90
22065;DHT22;11197;53.110;8.468;2024-03-08T05:26:45;1.40;99.90
22065;DHT22;11197;53.110;8.468;2024-03-08T05:29:11;1.40;99.90
22065;DHT22;11197;53.110;8.468;2024-03-08T05:31:49;1.40;99.90
22065;DHT22;11197;53.110;8.468;2024-03-08T05:34:16;1.40;99.90
22065;DHT22;11197;53.110;8.468;2024-03-08T05:36:42;1.40;99.90
22065;DHT22;11197;53.110;8.468;2024-03-08T05:39:12;1.40;99.90
22065;DHT22;11197;53.110;8.468;2024-03-08T05:41:39;1.40;99.90
22065;DHT22;11197;53.110;8.468;2024-03-08T05:44:05;1.30;99.90
22065;DHT22;11197;53.110;8.468;2024-03-08T05:46:31;1.30;99.90
22065;DHT22;11197;53.110;8.468;2024-03-08T05:48:57;1.30;99.90
22065;DHT22;11197;53.110;8.468;2024-03-08T05:51:25;1.30;99.90
22065;DHT22;11197;53.110;8.468;2024-03-08T05:53:53;1.30;99.90
22065;DHT22;11197;53.110;8.468;2024-03-08T05:56:19;1.30;99.90
22065;DHT22;11197;53.110;8.468;2024-03-08T05:58:45;1.30;99.90
22065;DHT22;11197;53.110;8.468;2024-03-08T06:01:11;1.30;99.90
22065;DHT22;11197;53.110;8.468;2024-03-08T06:03:38;1.30;99.90
22065;DHT22;11197;53.110;8.468;2024-03-08T06:06:13;1.30;99.90
22065;DHT22;11197;53.110;8.468;2024-03-08T06:08:40;1.30;99.90
22065;DHT22;11197;53.110;8.468;2024-03-08T06:11:06;1.30;99.90
22065;DHT22;11197;53.110;8.468;2024-03-08T06:13:32;1.30;99.90
22065;DHT22;11197;53.110;8.468;2024-03-08T06:15:59;1.30;99.90
22065;DHT22;11197;53.110;8.468;2024-03-08T06:18:26;1.30;99.90
22065;DHT22;11197;53.110;8.468;2024-03-08T06:20:52;1.30;99.90
22065;DHT22;11197;53.110;8.468;2024-03-08T06:23:18;1.30;99.90
22065;DHT22;11197;53.110;8.468;2024-03-08T06:25:44;1.30;99.90
22065;DHT22;11197;53.110;8.468;2024-03-08T06:28:10;1.20;99.90
22065;DHT22;11197;53.110;8.468;2024-03-08T06:30:36;1.30;99.90
22065;DHT22;11197;53.110;8.468;2024-03-08T06:33:02;1.20;99.90
22065;DHT22;11197;53.110;8.468;2024-03-08T06:35:28;2.00;99.90
22065;DHT22;11197;53.110;8.468;2024-03-08T06:37:53;2.40;99.90
22065;DHT22;11197;53.110;8.468;2024-03-08T06:40:19;2.40;99.90
22065;DHT22;11197;53.110;8.468;2024-03-08T06:42:45;2.30;99.90
22065;DHT22;11197;53.110;8.468;2024-03-08T06:45:11;2.20;99.90
22065;DHT22;11197;53.110;8.468;2024-03-08T06:47:38;2.50;99.90
22065;DHT22;11197;53.110;8.468;2024-03-08T06:50:04;2.50;99.90
22065;DHT22;11197;53.110;8.468;2024-03-08T06:52:29;2.50;99.90
22065;DHT22;11197;53.110;8.468;2024-03-08T06:54:55;2.40;99.90
22065;DHT22;11197;53.110;8.468;2024-03-08T06:57:22;2.30;99.90
22065;DHT22;11197;53.110;8.468;2024-03-08T06:59:49;2.20;99.90
22065;DHT22;11197;53.110;8.468;2024-03-08T07:02:14;2.10;99.90
22065;DHT22;11197;53.110;8.468;2024-03-08T07:04:40;2.10;99.90
22065;DHT22;11197;53.110;8.468;2024-03-08T07:07:06;1.90;99.90
22065;DHT22;11197;53.110;8.468;2024-03-08T07:09:38;1.90;99.90
22065;DHT22;11197;53.110;8.468;2024-03-08T07:12:04;1.90;99.90
22065;DHT22;11197;53.110;8.468;2024-03-08T07:14:30;1.80;99.90
22065;DHT22;11197;53.110;8.468;2024-03-08T07:16:56;1.70;99.90
22065;DHT22;11197;53.110;8.468;2024-03-08T07:19:22;1.70;99.90
22065;DHT22;11197;53.110;8.468;2024-03-08T07:21:49;1.70;99.90
22065;DHT22;11197;53.110;8.468;2024-03-08T07:24:15;1.70;99.90
22065;DHT22;11197;53.110;8.468;2024-03-08T07:26:58;1.70;99.90
22065;DHT22;11197;53.110;8.468;2024-03-08T07:29:24;1.70;99.90
22065;DHT22;11197;53.110;8.468;2024-03-08T07:31:50;1.70;99.90
22065;DHT22;11197;53.110;8.468;2024-03-08T07:34:22;1.70;99.90
22065;DHT22;11197;53.110;8.468;2024-03-08T07:36:48;1.80;99.90
22065;DHT22;11197;53.110;8.468;2024-03-08T07:39:15;1.80;99.90
22065;DHT22;11197;53.110;8.468;2024-03-08T07:41:41;1.80;99.90
22065;DHT22;11197;53.110;8.468;2024-03-08T07:44:07;1.80;99.90
22065;DHT22;11197;53.110;8.468;2024-03-08T07:46:33;1.90;99.90
22065;DHT22;11197;53.110;8.468;2024-03-08T07:49:02;1.90;99.90
22065;DHT22;11197;53.110;8.468;2024-03-08T07:51:28;2.00;99.90
22065;DHT22;11197;53.110;8.468;2024-03-08T07:53:54;2.00;99.90
22065;DHT22;11197;53.110;8.468;2024-03-08T07:56:23;2.20;99.90
22065;DHT22;11197;53.110;8.468;2024-03-08T07:58:49;3.50;99.90
22065;DHT22;11197;53.110;8.468;2024-03-08T08:01:18;4.00;99.90
22065;DHT22;11197;53.110;8.468;2024-03-08T08:03:44;4.00;99.90
22065;DHT22;11197;53.110;8.468;2024-03-08T08:06:10;3.90;99.90
22065;DHT22;11197;53.110;8.468;2024-03-08T08:08:44;3.70;99.90
22065;DHT22;11197;53.110;8.468;2024-03-08T08:11:10;3.50;99.90
22065;DHT22;11197;53.110;8.468;2024-03-08T08:13:41;3.30;99.90
22065;DHT22;11197;53.110;8.468;2024-03-08T08:16:09;3.20;99.90
22065;DHT22;11197;53.110;8.468;2024-03-08T08:18:36;3.10;99.90
22065;DHT22;11197;53.110;8.468;2024-03-08T08:21:05;3.10;99.90
22065;DHT22;11197;53.110;8.468;2024-03-08T08:23:33;3.00;99.90
22065;DHT22;11197;53.110;8.468;2024-03-08T08:26:00;3.00;99.90
22065;DHT22;11197;53.110;8.468;2024-03-08T08:28:27;2.90;99.90
22065;DHT22;11197;53.110;8.468;2024-03-08T08:30:52;2.90;99.90
22065;DHT22;11197;53.110;8.468;2024-03-08T08:33:19;3.20;99.90
22065;DHT22;11197;53.110;8.468;2024-03-08T08:35:45;3.60;99.90
22065;DHT22;11197;53.110;8.468;2024-03-08T08:38:13;3.80;99.90
22065;DHT22;11197;53.110;8.468;2024-03-08T08:40:39;3.80;99.90
22065;DHT22;11197;53.110;8.468;2024-03-08T08:43:04;3.80;99.90
22065;DHT22;11197;53.110;8.468;2024-03-08T08:45:30;3.70;99.90
22065;DHT22;11197;53.110;8.468;2024-03-08T08:47:56;3.60;99.90
22065;DHT22;11197;53.110;8.468;2024-03-08T08:50:25;3.60;99.90
22065;DHT22;11197;53.110;8.468;2024-03-08T08:52:52;3.50;99.90
22065;DHT22;11197;53.110;8.468;2024-03-08T08:55:18;3.50;99.90
22065;DHT22;11197;53.110;8.468;2024-03-08T08:57:47;3.50;99.90
22065;DHT22;11197;53.110;8.468;2024-03-08T09:00:21;3.50;99.90
22065;DHT22;11197;53.110;8.468;2024-03-08T09:02:47;3.50;99.90
22065;DHT22;11197;53.110;8.468;2024-03-08T09:05:16;3.60;99.90
22065;DHT22;11197;53.110;8.468;2024-03-08T09:07:45;3.60;99.90
22065;DHT22;11197;53.110;8.468;2024-03-08T09:10:11;3.70;99.90
22065;DHT22;11197;53.110;8.468;2024-03-08T09:12:40;3.60;99.90
22065;DHT22;11197;53.110;8.468;2024-03-08T09:15:06;3.60;99.90
22065;DHT22;11197;53.110;8.468;2024-03-08T09:17:43;3.70;99.90
22065;DHT22;11197;53.110;8.468;2024-03-08T09:20:10;3.70;99.90
22065;DHT22;11197;53.110;8.468;2024-03-08T09:22:40;3.70;99.90
22065;DHT22;11197;53.110;8.468;2024-03-08T09:25:06;3.70;99.90
22065;DHT22;11197;53.110;8.468;2024-03-08T09:27:33;3.80;99.90
22065;DHT22;11197;53.110;8.468;2024-03-08T09:29:59;3.80;99.90
22065;DHT22;11197;53.110;8.468;2024-03-08T09:32:25;3.80;99.90
22065;DHT22;11197;53.110;8.468;2024-03-08T09:34:52;3.90;99.90
22065;DHT22;11197;53.110;8.468;2024-03-08T09:37:17;4.00;99.90
22065;DHT22;11197;53.110;8.468;2024-03-08T09:39:44;4.00;99.90
22065;DHT22;11197;53.110;8.468;2024-03-08T09:42:10;4.10;99.90
22065;DHT22;11197;53.110;8.468;2024-03-08T09:44:46;4.10;99.90
22065;DHT22;11197;53.110;8.468;2024-03-08T09:47:15;4.00;99.90
22065;DHT22;11197;53.110;8.468;2024-03-08T09:49:42;4.10;99.90
22065;DHT22;11197;53.110;8.468;2024-03-08T09:52:09;4.70;99.90
22065;DHT22;11197;53.110;8.468;2024-03-08T09:54:35;5.90;99.90
22065;DHT22;11197;53.110;8.468;2024-03-08T09:57:04;6.90;99.90
22065;DHT22;11197;53.110;8.468;2024-03-08T09:59:30;7.50;99.90
22065;DHT22;11197;53.110;8.468;2024-03-08T10:02:02;8.00;99.90
22065;DHT22;11197;53.110;8.468;2024-03-08T10:04:31;8.40;99.90
22065;DHT22;11197;53.110;8.468;2024-03-08T10:07:01;9.00;99.90
22065;DHT22;11197;53.110;8.468;2024-03-08T10:09:27;9.50;99.90
22065;DHT22;11197;53.110;8.468;2024-03-08T10:11:56;9.90;99.90
22065;DHT22;11197;53.110;8.468;2024-03-08T10:14:27;10.00;99.90
22065;DHT22;11197;53.110;8.468;2024-03-08T10:16:53;10.30;99.90
22065;DHT22;11197;53.110;8.468;2024-03-08T10:19:20;10.20;99.90
22065;DHT22;11197;53.110;8.468;2024-03-08T10:21:52;9.80;99.90
22065;DHT22;11197;53.110;8.468;2024-03-08T10:24:23;9.20;99.90
22065;DHT22;11197;53.110;8.468;2024-03-08T10:26:53;8.60;99.90
22065;DHT22;11197;53.110;8.468;2024-03-08T10:29:19;8.00;99.90
22065;DHT22;11197;53.110;8.468;2024-03-08T10:31:45;7.60;99.90
22065;DHT22;11197;53.110;8.468;2024-03-08T10:34:11;7.30;99.90
22065;DHT22;11197;53.110;8.468;2024-03-08T10:36:38;7.00;99.90
22065;DHT22;11197;53.110;8.468;2024-03-08T10:39:12;6.80;99.90
22065;DHT22;11197;53.110;8.468;2024-03-08T10:41:44;6.50;99.90
22065;DHT22;11197;53.110;8.468;2024-03-08T10:44:26;6.40;99.90
22065;DHT22;11197;53.110;8.468;2024-03-08T10:47:02;6.30;99.90
22065;DHT22;11197;53.110;8.468;2024-03-08T10:49:32;6.10;99.90
22065;DHT22;11197;53.110;8.468;2024-03-08T10:52:03;6.00;99.90
22065;DHT22;11197;53.110;8.468;2024-03-08T10:54:31;6.00;99.90
22065;DHT22;11197;53.110;8.468;2024-03-08T10:56:59;6.00;99.90
22065;DHT22;11197;53.110;8.468;2024-03-08T10:59:26;6.00;99.90
22065;DHT22;11197;53.110;8.468;2024-03-08T11:01:54;6.00;99.90
22065;DHT22;11197;53.110;8.468;2024-03-08T11:04:19;6.00;99.90
22065;DHT22;11197;53.110;8.468;2024-03-08T11:06:48;5.90;99.90
22065;DHT22;11197;53.110;8.468;2024-03-08T11:09:51;5.90;99.90
22065;DHT22;11197;53.110;8.468;2024-03-08T11:14:52;6.00;99.90
22065;DHT22;11197;53.110;8.468;2024-03-08T11:19:56;6.00;99.90
22065;DHT22;11197;53.110;8.468;2024-03-08T11:22:33;6.00;99.90
22065;DHT22;11197;53.110;8.468;2024-03-08T11:25:09;6.00;99.90
22065;DHT22;11197;53.110;8.468;2024-03-08T11:27:38;6.00;99.90
22065;DHT22;11197;53.110;8.468;2024-03-08T11:30:05;6.00;99.90
22065;DHT22;11197;53.110;8.468;2024-03-08T11:32:46;6.00;99.90
22065;DHT22;11197;53.110;8.468;2024-03-08T11:35:20;6.00;99.90
22065;DHT22;11197;53.110;8.468;2024-03-08T11:37:46;6.10;99.90
22065;DHT22;11197;53.110;8.468;2024-03-08T11:40:14;6.10;99.90
22065;DHT22;11197;53.110;8.468;2024-03-08T11:42:44;6.10;99.90
22065;DHT22;11197;53.110;8.468;2024-03-08T11:45:13;6.20;99.90
22065;DHT22;11197;53.110;8.468;2024-03-08T11:47:45;6.20;99.90
22065;DHT22;11197;53.110;8.468;2024-03-08T11:50:15;6.20;99.90
22065;DHT22;11197;53.110;8.468;2024-03-08T11:52:41;6.30;99.90
22065;DHT22;11197;53.110;8.468;2024-03-08T11:55:08;6.30;99.90
22065;DHT22;11197;53.110;8.468;2024-03-08T11:57:34;6.30;99.90
22065;DHT22;11197;53.110;8.468;2024-03-08T12:00:01;6.40;99.90
22065;DHT22;11197;53.110;8.468;2024-03-08T12:02:34;6.40;99.90
22065;DHT22;11197;53.110;8.468;2024-03-08T12:05:04;6.40;99.90
22065;DHT22;11197;53.110;8.468;2024-03-08T12:07:31;6.50;99.90
22065;DHT22;11197;53.110;8.468;2024-03-08T12:10:22;6.60;99.90
22065;DHT22;11197;53.110;8.468;2024-03-08T12:12:49;6.60;99.90
22065;DHT22;11197;53.110;8.468;2024-03-08T12:15:18;6.60;99.90
22065;DHT22;11197;53.110;8.468;2024-03-08T12:17:45;6.60;99.90
22065;DHT22;11197;53.110;8.468;2024-03-08T12:20:27;6.60;99.90
22065;DHT22;11197;53.110;8.468;2024-03-08T12:22:56;6.60;99.90
22065;DHT22;11197;53.110;8.468;2024-03-08T12:25:22;6.70;99.90
22065;DHT22;11197;53.110;8.468;2024-03-08T12:27:52;6.80;99.90
22065;DHT22;11197;53.110;8.468;2024-03-08T12:30:24;6.70;99.90
22065;DHT22;11197;53.110;8.468;2024-03-08T12:32:54;6.80;99.90
22065;DHT22;11197;53.110;8.468;2024-03-08T12:35:26;6.80;99.90
22065;DHT22;11197;53.110;8.468;2024-03-08T12:37:55;6.80;99.90
22065;DHT22;11197;53.110;8.468;2024-03-08T12:40:28;6.80;99.90
22065;DHT22;11197;53.110;8.468;2024-03-08T12:42:55;6.90;99.90
22065;DHT22;11197;53.110;8.468;2024-03-08T12:45:22;7.00;99.90
22065;DHT22;11197;53.110;8.468;2024-03-08T12:47:50;7.10;99.90
22065;DHT22;11197;53.110;8.468;2024-03-08T12:50:17;7.10;99.90
22065;DHT22;11197;53.110;8.468;2024-03-08T12:52:43;7.20;99.90
22065;DHT22;11197;53.110;8.468;2024-03-08T12:55:09;7.10;99.90
22065;DHT22;11197;53.110;8.468;2024-03-08T12:57:36;7.10;99.90
22065;DHT22;11197;53.110;8.468;2024-03-08T13:00:04;7.20;99.90
22065;DHT22;11197;53.110;8.468;2024-03-08T13:02:30;7.20;99.90
22065;DHT22;11197;53.110;8.468;2024-03-08T13:04:57;7.20;99.90
22065;DHT22;11197;53.110;8.468;2024-03-08T13:07:24;7.20;99.90
22065;DHT22;11197;53.110;8.468;2024-03-08T13:09:55;7.30;99.90
22065;DHT22;11197;53.110;8.468;2024-03-08T13:12:21;7.30;99.90
22065;DHT22;11197;53.110;8.468;2024-03-08T13:14:47;7.30;99.90
22065;DHT22;11197;53.110;8.468;2024-03-08T13:17:14;7.30;99.90
22065;DHT22;11197;53.110;8.468;2024-03-08T13:19:40;7.40;99.90
22065;DHT22;11197;53.110;8.468;2024-03-08T13:22:07;7.40;99.90
22065;DHT22;11197;53.110;8.468;2024-03-08T13:24:37;7.40;99.90
22065;DHT22;11197;53.110;8.468;2024-03-08T13:27:03;7.50;99.90
22065;DHT22;11197;53.110;8.468;2024-03-08T13:29:42;7.50;99.90
22065;DHT22;11197;53.110;8.468;2024-03-08T13:32:08;7.50;99.90
22065;DHT22;11197;53.110;8.468;2024-03-08T13:34:40;7.50;99.90
22065;DHT22;11197;53.110;8.468;2024-03-08T13:37:06;7.50;99.90
22065;DHT22;11197;53.110;8.468;2024-03-08T13:39:32;7.50;99.90
22065;DHT22;11197;53.110;8.468;2024-03-08T13:42:12;7.60;99.90
22065;DHT22;11197;53.110;8.468;2024-03-08T13:44:45;7.70;99.90
22065;DHT22;11197;53.110;8.468;2024-03-08T13:47:16;7.70;99.90
22065;DHT22;11197;53.110;8.468;2024-03-08T13:49:43;7.70;99.90
22065;DHT22;11197;53.110;8.468;2024-03-08T13:52:12;7.70;99.90
22065;DHT22;11197;53.110;8.468;2024-03-08T13:54:40;7.80;99.90
22065;DHT22;11197;53.110;8.468;2024-03-08T13:57:06;7.70;99.90
22065;DHT22;11197;53.110;8.468;2024-03-08T13:59:33;7.80;99.90
22065;DHT22;11197;53.110;8.468;2024-03-08T14:02:01;7.80;99.90
22065;DHT22;11197;53.110;8.468;2024-03-08T14:04:31;7.90;99.90
22065;DHT22;11197;53.110;8.468;2024-03-08T14:06:56;7.90;99.90
22065;DHT22;11197;53.110;8.468;2024-03-08T14:09:26;7.90;99.90
22065;DHT22;11197;53.110;8.468;2024-03-08T14:11:55;8.00;99.90
22065;DHT22;11197;53.110;8.468;2024-03-08T14:14:23;8.00;99.90
22065;DHT22;11197;53.110;8.468;2024-03-08T14:16:50;8.10;99.90
22065;DHT22;11197;53.110;8.468;2024-03-08T14:19:20;8.10;99.90
22065;DHT22;11197;53.110;8.468;2024-03-08T14:21:47;8.10;99.90
22065;DHT22;11197;53.110;8.468;2024-03-08T14:24:19;8.20;99.90
22065;DHT22;11197;53.110;8.468;2024-03-08T14:26:45;8.20;99.90
22065;DHT22;11197;53.110;8.468;2024-03-08T14:29:12;8.20;99.90
22065;DHT22;11197;53.110;8.468;2024-03-08T14:31:38;8.20;99.90
22065;DHT22;11197;53.110;8.468;2024-03-08T14:34:04;8.30;99.90
22065;DHT22;11197;53.110;8.468;2024-03-08T14:36:30;8.40;99.90
22065;DHT22;11197;53.110;8.468;2024-03-08T14:38:55;8.40;99.90
22065;DHT22;11197;53.110;8.468;2024-03-08T14:41:21;8.40;99.90
22065;DHT22;11197;53.110;8.468;2024-03-08T14:43:50;8.40;99.90
22065;DHT22;11197;53.110;8.468;2024-03-08T14:46:19;8.30;99.90
22065;DHT22;11197;53.110;8.468;2024-03-08T14:48:46;8.40;99.90
22065;DHT22;11197;53.110;8.468;2024-03-08T14:51:13;8.40;99.90
22065;DHT22;11197;53.110;8.468;2024-03-08T14:53:43;8.40;99.90
22065;DHT22;11197;53.110;8.468;2024-03-08T14:56:13;8.40;99.90
22065;DHT22;11197;53.110;8.468;2024-03-08T14:58:45;8.50;99.90
22065;DHT22;11197;53.110;8.468;2024-03-08T15:01:12;8.50;99.90
22065;DHT22;11197;53.110;8.468;2024-03-08T15:03:41;8.40;99.90
22065;DHT22;11197;53.110;8.468;2024-03-08T15:06:10;8.40;99.90
22065;DHT22;11197;53.110;8.468;2024-03-08T15:08:39;8.50;99.90
22065;DHT22;11197;53.110;8.468;2024-03-08T15:11:06;8.60;99.90
22065;DHT22;11197;53.110;8.468;2024-03-08T15:13:32;8.60;99.90
22065;DHT22;11197;53.110;8.468;2024-03-08T15:16:10;8.60;99.90
22065;DHT22;11197;53.110;8.468;2024-03-08T15:18:42;8.70;99.90
22065;DHT22;11197;53.110;8.468;2024-03-08T15:21:13;8.60;99.90
22065;DHT22;11197;53.110;8.468;2024-03-08T15:23:43;8.70;99.90
22065;DHT22;11197;53.110;8.468;2024-03-08T15:26:14;8.60;99.90
22065;DHT22;11197;53.110;8.468;2024-03-08T15:28:41;8.60;99.90
22065;DHT22;11197;53.110;8.468;2024-03-08T15:31:07;8.60;99.90
22065;DHT22;11197;53.110;8.468;2024-03-08T15:33:34;8.70;99.90
22065;DHT22;11197;53.110;8.468;2024-03-08T15:36:00;8.70;99.90
22065;DHT22;11197;53.110;8.468;2024-03-08T15:38:35;8.70;99.90
22065;DHT22;11197;53.110;8.468;2024-03-08T15:41:02;8.70;99.90
22065;DHT22;11197;53.110;8.468;2024-03-08T15:43:38;8.70;99.90
22065;DHT22;11197;53.110;8.468;2024-03-08T15:46:09;8.70;99.90
22065;DHT22;11197;53.110;8.468;2024-03-08T15:48:36;8.70;99.90
22065;DHT22;11197;53.110;8.468;2024-03-08T15:51:03;8.70;99.90
22065;DHT22;11197;53.110;8.468;2024-03-08T15:53:34;8.70;99.90
22065;DHT22;11197;53.110;8.468;2024-03-08T15:56:04;8.70;99.90